Time;durP1;ratioP1;P1;durP2;ratioP2;P2;SDS_P1;SDS_P2;PMS_P1;PMS_P2;Temp;Humidity;BMP_temperature;BMP_pressure;BME280_temperature;BME280_humidity;BME280_pressure;Samples;Min_cycle;Max_cycle;Signal;HPM_P1;HPM_P2
2020/12/10 00:00:42;;;;;;;33.10;13.18;;;;;;;-5.72;74.14;100909.33;1711214;81;21573;-48
2020/12/10 00:03:10;;;;;;;36.70;14.50;;;;;;;-5.73;74.24;100898.34;1709455;81;22260;-49
2020/12/10 00:09:08;;;;;;;35.38;14.50;;;;;;;-5.68;74.25;100896.77;1729608;79;22798;-48
2020/12/10 00:11:37;;;;;;;36.83;16.48;;;;;;;-5.77;74.26;100887.26;1700315;82;21013;-50
2020/12/10 00:14:05;;;;;;;39.67;18.67;;;;;;;-5.82;74.31;100880.11;1702530;82;21398;-48
2020/12/10 00:16:33;;;;;;;30.90;15.98;;;;;;;-5.83;74.42;100877.02;1695604;82;21696;-47
2020/12/10 00:19:03;;;;;;;29.48;14.07;;;;;;;-5.84;74.46;100869.98;1696844;82;21013;-48
2020/12/10 00:21:31;;;;;;;31.68;15.23;;;;;;;-5.86;74.54;100871.68;1694247;82;21498;-49
2020/12/10 00:23:59;;;;;;;32.05;14.90;;;;;;;-5.89;74.60;100871.56;1698132;82;20951;-50
2020/12/10 00:26:27;;;;;;;28.62;14.13;;;;;;;-5.91;74.66;100862.75;1694602;82;21375;-51
2020/12/10 00:28:54;;;;;;;27.93;14.60;;;;;;;-5.93;74.75;100867.07;1697752;82;21251;-50
2020/12/10 00:31:22;;;;;;;37.63;15.88;;;;;;;-5.93;74.82;100872.33;1693832;82;21041;-51
2020/12/10 00:33:50;;;;;;;32.95;15.93;;;;;;;-5.95;74.86;100868.77;1692457;82;20998;-51
2020/12/10 00:36:18;;;;;;;27.50;15.10;;;;;;;-5.96;74.89;100855.59;1704860;82;21525;-50
2020/12/10 00:38:46;;;;;;;32.55;15.45;;;;;;;-5.94;75.01;100859.15;1699669;82;21383;-49
2020/12/10 00:41:16;;;;;;;28.62;14.73;;;;;;;-5.93;74.93;100861.81;1699606;82;21756;-51
2020/12/10 00:43:44;;;;;;;31.37;15.43;;;;;;;-5.94;74.92;100856.10;1695206;82;21584;-50
2020/12/10 00:46:12;;;;;;;41.37;16.20;;;;;;;-5.96;74.92;100856.48;1698539;82;21049;-49
2020/12/10 00:48:40;;;;;;;41.30;16.87;;;;;;;-5.99;75.06;100858.98;1694552;82;21518;-50
2020/12/10 00:51:08;;;;;;;37.83;15.50;;;;;;;-6.01;75.13;100858.05;1701311;82;21412;-49
2020/12/10 00:53:36;;;;;;;37.83;15.60;;;;;;;-6.05;75.21;100849.59;1697014;82;21164;-49
2020/12/10 00:56:04;;;;;;;35.33;14.35;;;;;;;-6.07;75.32;100851.29;1693843;82;21033;-50
2020/12/10 00:58:32;;;;;;;33.40;13.88;;;;;;;-6.08;75.41;100845.54;1694454;82;21120;-50
2020/12/10 01:01:00;;;;;;;37.33;14.53;;;;;;;-6.07;75.47;100847.34;1700828;82;21554;-49
2020/12/10 01:03:29;;;;;;;28.40;14.90;;;;;;;-6.06;75.40;100843.87;1700569;82;22196;-50
2020/12/10 01:05:57;;;;;;;23.95;12.18;;;;;;;-6.08;75.41;100831.98;1697337;82;21037;-49
2020/12/10 01:08:24;;;;;;;31.65;14.15;;;;;;;-6.05;75.46;100840.41;1695315;82;21140;-50
2020/12/10 01:10:52;;;;;;;33.65;14.03;;;;;;;-6.05;75.42;100833.84;1697772;82;21155;-49
2020/12/10 01:13:20;;;;;;;30.70;13.32;;;;;;;-6.04;75.39;100839.55;1694439;82;21592;-49
2020/12/10 01:15:50;;;;;;;27.35;13.28;;;;;;;-6.06;75.38;100836.00;1705257;82;21222;-49
2020/12/10 01:18:18;;;;;;;32.10;14.00;;;;;;;-6.07;75.41;100839.47;1672134;82;21172;-50
2020/12/10 01:20:45;;;;;;;32.05;13.35;;;;;;;-6.07;75.41;100836.84;1698442;82;21581;-50
2020/12/10 01:23:13;;;;;;;30.17;13.13;;;;;;;-6.09;75.41;100841.13;1700559;82;21144;-50
2020/12/10 01:25:41;;;;;;;31.73;15.48;;;;;;;-6.09;75.43;100838.51;1697054;82;21164;-49
2020/12/10 01:28:08;;;;;;;32.60;13.50;;;;;;;-6.13;75.45;100840.55;1693164;82;21471;-49
2020/12/10 01:30:36;;;;;;;31.25;13.75;;;;;;;-6.15;75.55;100840.92;1696197;82;21148;-49
2020/12/10 01:33:04;;;;;;;33.60;15.63;;;;;;;-6.17;75.66;100829.49;1696573;82;21561;-48
2020/12/10 01:35:36;;;;;;;32.23;14.73;;;;;;;-6.18;75.64;100833.86;1698690;82;21001;-50
2020/12/10 01:38:03;;;;;;;36.25;13.93;;;;;;;-6.18;75.60;100827.69;1697435;82;20990;-49
2020/12/10 01:40:31;;;;;;;28.92;13.45;;;;;;;-6.22;75.70;100825.81;1696386;82;21367;-48
2020/12/10 01:42:59;;;;;;;32.45;13.83;;;;;;;-6.24;75.77;100827.48;1702355;82;21643;-50
2020/12/10 01:45:27;;;;;;;27.42;13.03;;;;;;;-6.26;75.84;100825.23;1695492;82;21025;-50
2020/12/10 01:47:55;;;;;;;26.93;13.98;;;;;;;-6.26;75.84;100826.55;1701242;82;21158;-48
2020/12/10 01:50:23;;;;;;;25.65;12.18;;;;;;;-6.28;75.86;100826.89;1699924;82;21638;-47
2020/12/10 01:52:51;;;;;;;30.37;12.88;;;;;;;-6.30;75.94;100816.77;1698131;82;21367;-48
2020/12/10 01:55:18;;;;;;;28.70;13.22;;;;;;;-6.31;76.00;100820.24;1688072;82;21584;-47
2020/12/10 01:57:46;;;;;;;32.90;14.50;;;;;;;-6.35;76.07;100820.13;1698014;82;21112;-48
2020/12/10 02:00:14;;;;;;;28.05;11.75;;;;;;;-6.33;76.06;100833.32;1699442;82;21021;-49
2020/12/10 02:02:42;;;;;;;32.13;13.45;;;;;;;-6.30;76.11;100828.58;1697548;82;21148;-47
2020/12/10 02:05:09;;;;;;;30.75;12.20;;;;;;;-6.29;75.99;100825.11;1699387;82;21322;-49
2020/12/10 02:07:37;;;;;;;34.15;14.75;;;;;;;-6.29;76.00;100826.42;1697839;82;21018;-48
2020/12/10 02:10:06;;;;;;;44.15;15.20;;;;;;;-6.31;75.93;100822.87;1699370;82;20966;-47
2020/12/10 02:12:34;;;;;;;38.05;15.38;;;;;;;-6.35;75.99;100829.73;1701681;82;21034;-48
2020/12/10 02:15:04;;;;;;;43.35;16.52;;;;;;;-6.34;76.10;100824.56;1699228;82;20980;-49
2020/12/10 02:17:32;;;;;;;64.22;19.25;;;;;;;-6.32;76.00;100823.71;1699070;82;21378;-49
2020/12/10 02:20:01;;;;;;;66.00;20.65;;;;;;;-6.35;76.10;100821.86;1699001;82;21006;-48
2020/12/10 02:22:29;;;;;;;44.67;17.73;;;;;;;-6.32;76.16;100828.96;1696967;82;21608;-47
2020/12/10 02:24:57;;;;;;;43.70;16.10;;;;;;;-6.33;76.11;100813.64;1697620;82;20985;-48
2020/12/10 02:27:25;;;;;;;39.85;15.13;;;;;;;-6.32;76.16;100807.97;1698853;82;20992;-48
2020/12/10 02:29:53;;;;;;;37.93;15.08;;;;;;;-6.29;76.12;100805.42;1697396;82;21375;-48
2020/12/10 02:32:20;;;;;;;32.70;12.98;;;;;;;-6.28;76.00;100799.33;1699175;82;21062;-48
2020/12/10 02:34:49;;;;;;;49.58;15.40;;;;;;;-6.27;75.88;100803.77;1697756;82;21164;-48
2020/12/10 02:37:16;;;;;;;37.28;15.58;;;;;;;-6.27;75.84;100798.52;1698303;82;21543;-47
2020/12/10 02:39:45;;;;;;;36.40;14.50;;;;;;;-6.30;75.77;100793.16;1696315;82;20982;-48
2020/12/10 02:42:12;;;;;;;35.33;13.45;;;;;;;-6.29;75.78;100792.30;1697871;82;22221;-48
2020/12/10 02:44:40;;;;;;;32.30;13.75;;;;;;;-6.28;75.77;100796.70;1700126;82;21168;-47
2020/12/10 02:47:09;;;;;;;28.65;12.35;;;;;;;-6.31;75.68;100788.75;1699251;82;21497;-48
2020/12/10 02:49:37;;;;;;;26.65;13.50;;;;;;;-6.32;75.71;100781.72;1697656;82;21013;-48
2020/12/10 02:52:05;;;;;;;29.35;13.08;;;;;;;-6.35;75.72;100780.75;1700073;82;21136;-47
2020/12/10 02:54:32;;;;;;;28.30;12.88;;;;;;;-6.37;75.71;100787.70;1673107;82;21480;-48
2020/12/10 02:57:01;;;;;;;29.25;12.58;;;;;;;-6.40;75.77;100776.19;1693340;82;21001;-53
2020/12/10 02:59:29;;;;;;;26.75;12.05;;;;;;;-6.38;75.84;100775.42;1695530;82;21042;-50
2020/12/10 03:01:57;;;;;;;29.32;13.10;;;;;;;-6.40;75.85;100784.95;1696728;82;21130;-49
2020/12/10 03:04:25;;;;;;;32.48;13.93;;;;;;;-6.42;75.87;100784.02;1701588;82;21149;-49
2020/12/10 03:06:54;;;;;;;30.05;14.13;;;;;;;-6.43;75.90;100773.48;1696641;82;22293;-48
2020/12/10 03:09:22;;;;;;;27.02;12.23;;;;;;;-6.44;75.90;100769.97;1695042;82;21581;-48
2020/12/10 03:11:49;;;;;;;27.82;12.55;;;;;;;-6.46;75.96;100774.25;1699844;82;21451;-50
2020/12/10 03:14:17;;;;;;;25.60;12.15;;;;;;;-6.45;76.00;100770.78;1695952;82;21191;-49
2020/12/10 03:16:45;;;;;;;26.57;12.63;;;;;;;-6.46;75.99;100774.25;1697437;82;21140;-48
2020/12/10 03:19:12;;;;;;;38.45;14.00;;;;;;;-6.46;76.06;100769.00;1694759;82;21862;-48
2020/12/10 03:21:40;;;;;;;30.70;13.40;;;;;;;-6.47;76.08;100772.47;1693095;82;21037;-50
2020/12/10 03:24:08;;;;;;;29.25;13.25;;;;;;;-6.47;76.11;100776.41;1695646;82;21586;-52
2020/12/10 03:26:35;;;;;;;30.30;13.08;;;;;;;-6.47;76.16;100769.84;1696125;82;21561;-49
2020/12/10 03:29:07;;;;;;;29.00;12.90;;;;;;;-6.46;76.10;100776.88;1694199;82;21595;-49
2020/12/10 03:31:32;;;;;;;28.00;12.98;;;;;;;-6.45;76.10;100783.91;1693948;82;21387;-48
2020/12/10 03:34:02;;;;;;;33.05;14.35;;;;;;;-6.46;76.06;100779.50;1694622;82;21609;-48
2020/12/10 03:36:33;;;;;;;32.63;14.35;;;;;;;-6.47;76.18;100767.22;1695376;82;21510;-49
2020/12/10 03:39:09;;;;;;;37.23;14.07;;;;;;;-6.38;76.17;100769.28;1801621;76;22880;-50
2020/12/10 03:41:37;;;;;;;39.67;13.85;;;;;;;-6.44;76.07;100764.72;1756117;79;21005;-48
2020/12/10 03:44:04;;;;;;;23.47;11.30;;;;;;;-6.46;76.16;100757.20;1757541;78;21810;-49
2020/12/10 03:46:34;;;;;;;22.95;12.28;;;;;;;-6.45;76.10;100752.84;1759893;79;21054;-49
2020/12/10 03:49:04;;;;;;;26.95;13.62;;;;;;;-6.47;76.09;100748.86;1758873;78;21024;-51
2020/12/10 03:51:32;;;;;;;24.77;11.53;;;;;;;-6.47;76.12;100750.17;1757755;79;20986;-50
2020/12/10 03:54:02;;;;;;;26.93;12.10;;;;;;;-6.48;76.13;100750.13;1758452;79;21509;-49
2020/12/10 03:56:33;;;;;;;22.70;11.03;;;;;;;-6.51;76.16;100744.34;1757658;79;21435;-49
2020/12/10 03:59:01;;;;;;;22.75;11.48;;;;;;;-6.53;76.18;100746.45;1757843;79;21000;-51
2020/12/10 04:01:31;;;;;;;25.65;13.43;;;;;;;-6.55;76.29;100743.78;1766947;79;20992;-51
2020/12/10 04:03:59;;;;;;;24.60;11.43;;;;;;;-6.57;76.39;100743.25;1762820;79;21541;-48
2020/12/10 04:06:27;;;;;;;27.50;13.48;;;;;;;-6.61;76.46;100744.44;1763970;78;20982;-48
2020/12/10 04:08:55;;;;;;;26.65;13.45;;;;;;;-6.63;76.59;100738.26;1732057;79;21620;-49
2020/12/10 04:11:24;;;;;;;26.77;14.03;;;;;;;-6.62;76.62;100716.85;1758072;79;20966;-47
2020/12/10 04:13:54;;;;;;;33.63;14.45;;;;;;;-6.62;76.65;100716.85;1760783;79;28266;-48
2020/12/10 04:16:22;;;;;;;31.50;15.55;;;;;;;-6.63;76.68;100726.88;1760758;79;21132;-49
2020/12/10 04:18:50;;;;;;;43.28;15.83;;;;;;;-6.66;76.77;100725.05;1757384;79;21134;-48
2020/12/10 04:21:18;;;;;;;30.88;14.23;;;;;;;-6.70;76.84;100721.84;1757386;79;21394;-47
2020/12/10 04:23:47;;;;;;;29.82;15.18;;;;;;;-6.71;76.87;100716.52;1759326;79;21573;-48
2020/12/10 04:26:15;;;;;;;39.70;17.55;;;;;;;-6.75;76.99;100717.28;1759065;79;21706;-49
2020/12/10 04:28:43;;;;;;;36.68;15.53;;;;;;;-6.79;77.09;100723.25;1756945;79;21140;-48
2020/12/10 04:31:11;;;;;;;38.53;16.50;;;;;;;-6.81;77.16;100717.08;1760001;78;21616;-48
2020/12/10 04:33:39;;;;;;;44.65;16.57;;;;;;;-6.86;77.32;100716.48;1757167;79;21192;-50
2020/12/10 04:36:07;;;;;;;38.75;17.07;;;;;;;-6.86;77.42;100717.80;1758676;79;20982;-48
2020/12/10 04:38:34;;;;;;;37.20;16.97;;;;;;;-6.83;77.43;100718.73;1765300;78;21198;-50
2020/12/10 04:41:04;;;;;;;36.45;17.80;;;;;;;-6.84;77.43;100716.95;1771077;78;21037;-48
2020/12/10 04:43:31;;;;;;;40.67;16.85;;;;;;;-6.87;77.51;100718.64;1770432;78;21437;-48
2020/12/10 04:46:01;;;;;;;34.05;14.58;;;;;;;-6.88;77.60;100717.25;1769948;78;22227;-49
2020/12/10 04:48:34;;;;;;;30.37;14.73;;;;;;;-6.89;77.71;100720.30;1770519;78;21140;-49
2020/12/10 04:51:06;;;;;;;;;;;;;;;-6.88;77.78;100715.95;1772388;78;21173;-48
2020/12/10 04:53:34;;;;;;;34.20;14.27;;;;;;;-6.87;77.79;100720.34;1770401;78;20280;-51
2020/12/10 04:56:07;;;;;;;37.20;14.75;;;;;;;-6.85;77.88;100727.87;1769614;78;21372;-50
2020/12/10 04:58:35;;;;;;;29.30;13.22;;;;;;;-6.84;77.86;100718.27;1771572;78;21254;-51
2020/12/10 05:01:03;;;;;;;30.68;12.82;;;;;;;-6.88;77.85;100711.59;1770123;78;21627;-50
2020/12/10 05:03:32;;;;;;;28.05;13.78;;;;;;;-6.84;77.87;100713.02;1769792;78;21012;-51
2020/12/10 05:06:10;;;;;;;29.15;13.53;;;;;;;-6.86;77.86;100712.55;1770540;78;20985;-50
2020/12/10 05:08:38;;;;;;;29.90;14.75;;;;;;;-6.84;77.94;100714.33;1769888;78;21185;-51
2020/12/10 05:11:08;;;;;;;31.77;15.45;;;;;;;-6.83;77.97;100708.24;1772457;78;21196;-51
2020/12/10 05:13:37;;;;;;;29.98;13.93;;;;;;;-6.82;77.96;100703.04;1769064;79;21040;-48
2020/12/10 05:16:22;;;;;;;33.28;15.58;;;;;;;-6.81;78.01;100710.52;1768406;78;21044;-50
2020/12/10 05:18:50;;;;;;;33.30;16.15;;;;;;;-6.79;78.01;100715.38;1772699;78;21116;-49
2020/12/10 05:21:18;;;;;;;42.15;17.02;;;;;;;-6.77;78.08;100716.31;1769212;79;21151;-51
2020/12/10 05:23:47;;;;;;;30.82;14.73;;;;;;;-6.75;78.00;100712.04;1771008;78;21379;-50
2020/12/10 05:26:14;;;;;;;38.17;16.97;;;;;;;-6.75;78.00;100719.91;1768150;78;21163;-50
2020/12/10 05:28:49;;;;;;;40.30;18.23;;;;;;;-6.75;78.04;100718.59;1743140;78;21693;-50
2020/12/10 05:31:20;;;;;;;36.80;16.93;;;;;;;-6.76;78.10;100713.77;1751722;79;21705;-50
2020/12/10 05:33:58;;;;;;;41.20;18.57;;;;;;;-6.67;78.18;100718.42;1837147;76;22790;-49
2020/12/10 05:36:27;;;;;;;39.05;18.45;;;;;;;-6.69;78.13;100725.36;1790566;77;20997;-50
2020/12/10 05:39:08;;;;;;;39.00;17.05;;;;;;;-6.68;78.13;100729.77;1784741;77;22158;-53
2020/12/10 05:41:40;;;;;;;31.35;14.40;;;;;;;-6.65;78.19;100729.45;1774706;78;21014;-50
2020/12/10 05:44:27;;;;;;;32.10;14.47;;;;;;;-6.63;78.17;100722.94;1794984;77;21012;-51
2020/12/10 05:47:06;;;;;;;33.73;14.65;;;;;;;-6.60;78.26;100725.69;1787674;78;20970;-51
2020/12/10 05:49:37;;;;;;;34.95;14.45;;;;;;;-6.56;78.27;100726.66;1791597;77;20970;-51
2020/12/10 05:52:08;;;;;;;45.60;16.73;;;;;;;-6.50;78.33;100738.25;1786987;77;21369;-50
2020/12/10 05:54:37;;;;;;;38.40;16.17;;;;;;;-6.45;78.38;100741.03;1789903;77;21033;-51
2020/12/10 05:57:06;;;;;;;45.00;17.75;;;;;;;-6.39;78.34;100732.05;1791464;77;20985;-52
2020/12/10 05:59:34;;;;;;;52.23;18.98;;;;;;;-6.35;78.33;100733.52;1789113;77;21184;-51
2020/12/10 06:02:08;;;;;;;37.15;17.42;;;;;;;-6.32;78.35;100728.81;1751399;80;21667;-52
2020/12/10 06:04:36;;;;;;;68.10;23.40;;;;;;;-6.27;78.38;100738.16;1749807;78;21319;-52
2020/12/10 06:07:04;;;;;;;48.90;19.45;;;;;;;-6.23;78.38;100733.45;1747859;78;21707;-53
2020/12/10 06:09:33;;;;;;;40.75;18.52;;;;;;;-6.18;78.28;100729.25;1746048;81;21537;-51
2020/12/10 06:12:03;;;;;;;38.88;17.87;;;;;;;-6.15;78.16;100730.67;1738843;78;21243;-51
2020/12/10 06:14:33;;;;;;;47.00;17.92;;;;;;;-6.11;78.25;100735.19;1747502;78;21120;-50
2020/12/10 06:17:07;;;;;;;42.98;19.32;;;;;;;-6.07;78.13;100734.45;1717427;80;22716;-51
2020/12/10 06:19:36;;;;;;;40.92;20.43;;;;;;;-6.05;78.15;100727.50;1753792;78;21176;-52
2020/12/10 06:22:28;;;;;;;42.78;18.95;;;;;;;-6.05;78.22;100733.18;1749647;79;21219;-54
2020/12/10 06:24:58;;;;;;;41.13;19.77;;;;;;;-6.05;78.31;100730.12;1745753;78;21218;-52
2020/12/10 06:27:33;;;;;;;36.68;19.67;;;;;;;-6.03;78.33;100723.61;1739131;81;21068;-51
2020/12/10 06:30:14;;;;;;;32.95;17.90;;;;;;;-6.01;78.38;100718.89;1741786;79;22131;-53
2020/12/10 06:32:44;;;;;;;39.18;17.48;;;;;;;-5.98;78.41;100720.28;1738796;79;21592;-51
2020/12/10 06:35:28;;;;;;;36.58;18.55;;;;;;;-5.94;78.45;100712.98;1747722;78;21139;-51
2020/12/10 06:38:05;;;;;;;42.62;18.82;;;;;;;-5.83;78.38;100710.22;1801356;78;22457;-52
2020/12/10 06:40:41;;;;;;;40.12;18.62;;;;;;;-5.87;78.44;100712.28;1751951;80;20997;-52
2020/12/10 06:43:10;;;;;;;41.92;20.97;;;;;;;-5.84;78.40;100709.77;1751184;80;21427;-53
2020/12/10 06:45:42;;;;;;;40.70;18.77;;;;;;;-5.81;78.47;100715.09;1734562;80;22364;-51
2020/12/10 06:48:15;;;;;;;47.70;19.82;;;;;;;-5.75;78.50;100704.30;1737058;80;21010;-52
2020/12/10 06:50:51;;;;;;;40.88;21.27;;;;;;;-5.67;78.47;100696.25;1815069;76;22774;-51
2020/12/10 06:53:22;;;;;;;42.83;21.37;;;;;;;-5.69;78.49;100703.20;1778149;77;21061;-50
2020/12/10 06:58:47;;;;;;;35.98;15.95;;;;;;;-5.54;78.53;100693.12;1822675;77;23334;-51
2020/12/10 07:01:28;;;;;;;39.78;18.65;;;;;;;-5.54;78.43;100687.87;1812913;78;21037;-51
2020/12/10 07:07:22;;;;;;;49.38;20.35;;;;;;;-5.41;78.25;100690.03;1810336;78;21688;-54
2020/12/10 07:10:00;;;;;;;42.55;18.07;;;;;;;-5.28;78.12;100673.74;1739081;77;22747;-52
2020/12/10 07:12:35;;;;;;;44.42;19.57;;;;;;;-5.27;77.96;100685.18;1716965;80;21006;-54
2020/12/10 07:15:23;;;;;;;44.80;20.75;;;;;;;-5.22;77.98;100680.02;1717293;80;21208;-50
2020/12/10 07:17:51;;;;;;;39.27;16.95;;;;;;;-5.17;77.84;100681.05;1717639;80;21767;-53
2020/12/10 07:20:28;;;;;;;48.63;18.82;;;;;;;-5.06;77.79;100686.17;1855578;74;22815;-53
2020/12/10 07:22:57;;;;;;;51.13;19.62;;;;;;;-5.08;77.76;100690.08;1846084;75;21556;-54
2020/12/10 07:25:25;;;;;;;64.60;24.57;;;;;;;-5.04;77.77;100693.70;1823805;77;22147;-52
2020/12/10 07:27:54;;;;;;;53.65;21.12;;;;;;;-5.04;77.76;100688.44;1823403;77;21837;-52
2020/12/10 07:30:24;;;;;;;48.48;21.93;;;;;;;-5.02;77.78;100697.25;1791000;77;21072;-52
2020/12/10 07:32:54;;;;;;;67.30;24.07;;;;;;;-5.02;77.78;100692.88;1822918;77;21052;-50
2020/12/10 07:35:33;;;;;;;59.27;19.98;;;;;;;-5.00;77.93;100695.58;1818837;77;20974;-51
2020/12/10 07:38:11;;;;;;;50.12;20.60;;;;;;;-4.98;77.88;100699.13;1823415;77;21651;-48
2020/12/10 07:40:40;;;;;;;48.08;21.05;;;;;;;-4.99;77.80;100694.72;1822476;77;20988;-48
2020/12/10 07:43:13;;;;;;;47.83;19.62;;;;;;;-5.01;77.79;100683.25;1822316;77;21136;-52
2020/12/10 07:45:41;;;;;;;40.17;17.90;;;;;;;-5.02;77.86;100674.90;1819769;77;21132;-51
2020/12/10 07:48:10;;;;;;;42.38;19.00;;;;;;;-5.00;78.05;100685.05;1822374;77;21001;-52
2020/12/10 07:50:39;;;;;;;46.35;20.92;;;;;;;-5.00;78.19;100689.00;1822803;77;21671;-52
2020/12/10 07:53:07;;;;;;;59.20;24.50;;;;;;;-5.01;78.30;100692.06;1823280;77;21584;-53
2020/12/10 07:55:51;;;;;;;54.85;20.45;;;;;;;-4.99;78.47;100689.45;1820658;77;21144;-52
2020/12/10 07:58:45;;;;;;;51.92;22.37;;;;;;;-4.95;78.66;100688.70;1823274;77;21100;-53
2020/12/10 08:01:13;;;;;;;52.65;22.40;;;;;;;-4.92;78.80;100679.98;1824051;77;20999;-55
2020/12/10 08:03:54;;;;;;;60.30;23.67;;;;;;;-4.90;79.15;100681.83;1823258;77;21447;-52
2020/12/10 08:06:22;;;;;;;57.08;26.42;;;;;;;-4.90;79.38;100677.87;1822348;77;21012;-52
2020/12/10 08:09:00;;;;;;;65.70;26.45;;;;;;;-4.88;79.36;100680.55;1792508;77;21024;-53
2020/12/10 08:11:29;;;;;;;66.85;25.90;;;;;;;-4.85;79.31;100672.28;1823134;77;21012;-54
2020/12/10 08:14:08;;;;;;;60.35;24.60;;;;;;;-4.83;79.24;100665.34;1824362;77;20961;-52
2020/12/10 08:16:45;;;;;;;58.98;23.60;;;;;;;-4.80;79.19;100657.52;1822938;77;21366;-53
2020/12/10 08:19:26;;;;;;;54.65;23.42;;;;;;;-4.79;79.28;100653.17;1822390;77;21581;-54
2020/12/10 08:21:54;;;;;;;43.40;19.17;;;;;;;-4.81;79.33;100654.42;1821820;77;21056;-52
2020/12/10 08:24:46;;;;;;;57.23;24.35;;;;;;;-4.78;79.33;100645.31;1821822;77;21025;-53
2020/12/10 08:27:14;;;;;;;58.38;26.68;;;;;;;-4.77;79.10;100644.45;1820788;77;21097;-52
2020/12/10 08:30:02;;;;;;;51.55;25.55;;;;;;;-4.78;79.02;100642.67;1821453;77;21377;-52
2020/12/10 08:32:31;;;;;;;48.15;21.90;;;;;;;-4.75;78.93;100640.11;1818495;77;21440;-53
2020/12/10 08:35:04;;;;;;;67.32;26.68;;;;;;;-4.70;78.82;100634.08;1819072;77;21024;-53
2020/12/10 08:37:41;;;;;;;50.00;23.47;;;;;;;-4.68;78.67;100624.50;1821349;77;21092;-52
2020/12/10 08:40:10;;;;;;;54.65;24.20;;;;;;;-4.65;78.62;100629.82;1820948;77;21505;-53
2020/12/10 08:42:42;;;;;;;45.85;20.23;;;;;;;-4.61;78.56;100621.16;1821450;77;22353;-52
2020/12/10 08:45:10;;;;;;;47.00;20.60;;;;;;;-4.59;78.50;100624.70;1819296;77;21036;-52
2020/12/10 08:47:38;;;;;;;42.03;19.05;;;;;;;-4.56;78.47;100623.48;1819406;77;21151;-53
2020/12/10 08:50:27;;;;;;;38.85;18.85;;;;;;;-4.56;78.54;100615.59;1819931;77;21103;-53
2020/12/10 08:53:06;;;;;;;37.98;19.32;;;;;;;-4.55;78.64;100617.36;1820124;77;21107;-51
2020/12/10 08:55:46;;;;;;;43.17;20.88;;;;;;;-4.54;78.80;100624.39;1817075;77;22093;-54
2020/12/10 08:58:24;;;;;;;54.23;22.55;;;;;;;-4.51;78.96;100621.85;1818563;77;21577;-53
2020/12/10 09:00:54;;;;;;;39.95;20.10;;;;;;;-4.49;79.00;100620.13;1819195;77;21174;-54
2020/12/10 09:03:24;;;;;;;53.50;21.82;;;;;;;-4.46;79.10;100610.13;1818799;77;21465;-53
2020/12/10 09:05:54;;;;;;;47.23;21.52;;;;;;;-4.44;79.11;100610.61;1819048;77;21136;-54
2020/12/10 09:08:23;;;;;;;39.03;19.95;;;;;;;-4.41;79.09;100614.64;1820116;77;22307;-52
2020/12/10 09:10:51;;;;;;;42.30;20.05;;;;;;;-4.40;79.15;100608.52;1818880;77;21107;-54
2020/12/10 09:13:23;;;;;;;36.42;17.85;;;;;;;-4.37;79.19;100613.84;1819636;77;21155;-53
2020/12/10 09:15:49;;;;;;;37.50;19.90;;;;;;;-4.34;79.24;100600.76;1818996;77;21171;-53
2020/12/10 09:18:18;;;;;;;45.78;20.52;;;;;;;-4.29;79.22;100589.91;1818904;77;21238;-53
2020/12/10 09:20:45;;;;;;;42.38;20.97;;;;;;;-4.29;79.24;100595.60;1821972;77;21474;-53
2020/12/10 09:23:17;;;;;;;43.08;21.52;;;;;;;-4.30;79.45;100602.62;1821022;77;21175;-51
2020/12/10 09:25:45;;;;;;;44.90;20.77;;;;;;;-4.30;79.54;100592.09;1820637;77;21132;-52
2020/12/10 09:28:13;;;;;;;43.92;20.68;;;;;;;-4.25;79.68;100582.55;1822149;77;20986;-48
2020/12/10 09:30:40;;;;;;;44.60;22.07;;;;;;;-4.17;79.71;100581.82;1821750;77;21139;-49
2020/12/10 09:33:10;;;;;;;43.63;20.80;;;;;;;-4.14;79.66;100571.38;1822318;77;21197;-52
2020/12/10 09:35:39;;;;;;;42.67;20.27;;;;;;;-4.10;79.69;100581.09;1822108;77;21123;-52
2020/12/10 09:38:11;;;;;;;52.75;22.02;;;;;;;-4.05;79.66;100583.40;1823167;77;20973;-53
2020/12/10 09:40:42;;;;;;;43.78;19.17;;;;;;;-3.99;79.66;100586.20;1822516;77;21008;-51
2020/12/10 09:43:14;;;;;;;46.68;21.33;;;;;;;-3.92;79.57;100576.23;1822395;77;20966;-51
2020/12/10 09:45:48;;;;;;;57.98;24.63;;;;;;;-3.87;79.49;100577.23;1798880;77;21403;-52
2020/12/10 09:48:13;;;;;;;39.67;19.62;;;;;;;-3.82;79.43;100585.23;1822203;77;21570;-49
2020/12/10 09:50:41;;;;;;;55.45;22.37;;;;;;;-3.81;79.41;100589.20;1820921;77;21004;-50
2020/12/10 09:58:25;;;;;;;53.83;26.75;;;;;;;-3.70;79.55;100604.81;1821886;77;21381;-56
2020/12/10 10:00:53;;;;;;;62.85;28.02;;;;;;;-3.66;79.41;100615.44;1821101;77;21043;-57
2020/12/10 10:03:21;;;;;;;59.70;27.25;;;;;;;-3.64;79.41;100605.37;1822714;77;20961;-53
2020/12/10 10:05:54;;;;;;;48.55;23.45;;;;;;;-3.62;79.44;100601.44;1823124;77;21045;-49
2020/12/10 10:08:24;;;;;;;39.83;20.45;;;;;;;-3.60;79.50;100591.83;1823802;77;26826;-46
2020/12/10 10:10:53;;;;;;;;;;;;;;;-3.60;79.52;100581.29;1825732;77;21564;-57
2020/12/10 10:13:27;;;;;;;54.80;25.62;;;;;;;-3.57;79.54;100590.16;1822880;77;20375;-52
2020/12/10 10:16:02;;;;;;;42.48;19.52;;;;;;;-3.59;79.65;100581.74;1823638;77;20996;-51
2020/12/10 10:18:29;;;;;;;45.88;22.65;;;;;;;-3.56;79.73;100591.05;1790495;77;21115;-54
2020/12/10 10:21:01;;;;;;;43.90;22.32;;;;;;;-3.54;79.72;100593.27;1819729;77;21096;-53
2020/12/10 10:23:29;;;;;;;51.48;22.87;;;;;;;-3.53;79.74;100588.45;1819946;77;21478;-52
2020/12/10 10:26:00;;;;;;;44.88;20.97;;;;;;;-3.52;79.78;100579.68;1818925;77;21587;-53
2020/12/10 10:28:31;;;;;;;58.13;24.27;;;;;;;-3.53;79.90;100570.00;1821298;77;20989;-50
2020/12/10 10:31:00;;;;;;;41.85;20.50;;;;;;;-3.54;79.98;100568.23;1819772;77;21566;-49
2020/12/10 10:33:29;;;;;;;39.00;19.27;;;;;;;-3.53;80.08;100567.36;1819681;77;21111;-52
2020/12/10 10:35:58;;;;;;;42.50;20.30;;;;;;;-3.51;80.15;100559.08;1818838;77;22259;-53
2020/12/10 10:38:26;;;;;;;46.18;20.92;;;;;;;-3.50;80.23;100559.52;1819863;77;21013;-51
2020/12/10 10:40:54;;;;;;;49.00;21.33;;;;;;;-3.47;80.29;100562.20;1820911;77;21123;-51
2020/12/10 10:43:26;;;;;;;54.93;22.02;;;;;;;-3.44;80.33;100560.95;1819509;77;21059;-52
2020/12/10 10:45:54;;;;;;;42.65;20.43;;;;;;;-3.41;80.35;100557.05;1821217;77;21557;-52
2020/12/10 10:48:24;;;;;;;42.08;20.65;;;;;;;-3.38;80.40;100553.16;1820944;77;22074;-51
2020/12/10 10:50:53;;;;;;;43.85;19.17;;;;;;;-3.36;80.49;100561.97;1819805;77;21016;-52
2020/12/10 10:53:24;;;;;;;51.70;23.07;;;;;;;-3.35;80.50;100565.53;1819281;77;20993;-51
2020/12/10 10:55:51;;;;;;;61.35;26.52;;;;;;;-3.34;80.61;100574.78;1820407;77;21517;-50
2020/12/10 10:58:23;;;;;;;55.00;24.77;;;;;;;-3.33;80.70;100564.68;1819466;77;20958;-52
2020/12/10 11:00:51;;;;;;;63.10;26.97;;;;;;;-3.32;80.78;100559.86;1821345;77;21308;-51
2020/12/10 11:03:19;;;;;;;54.65;24.27;;;;;;;-3.30;80.93;100550.25;1821843;77;21105;-48
2020/12/10 11:05:46;;;;;;;49.00;20.85;;;;;;;-3.27;81.13;100557.31;1819898;77;22079;-47
2020/12/10 11:08:19;;;;;;;53.48;21.30;;;;;;;-3.23;81.29;100560.04;1821285;77;21020;-50
2020/12/10 11:10:55;;;;;;;56.80;27.07;;;;;;;-3.21;81.55;100554.34;1819234;76;22761;-48
2020/12/10 11:13:23;;;;;;;53.75;23.62;;;;;;;-3.29;81.78;100557.30;1803480;77;21060;-47
2020/12/10 11:15:55;;;;;;;55.17;22.62;;;;;;;-3.30;82.05;100550.25;1782672;79;22214;-48
2020/12/10 11:18:36;;;;;;;49.13;23.27;;;;;;;-3.24;82.40;100554.31;1861906;74;22602;-48
2020/12/10 11:21:04;;;;;;;54.10;23.52;;;;;;;-3.33;82.62;100558.09;1837130;77;21530;-50
2020/12/10 11:23:35;;;;;;;51.35;25.35;;;;;;;-3.33;82.89;100546.66;1837363;77;21366;-49
2020/12/10 11:26:07;;;;;;;54.50;25.48;;;;;;;-3.31;83.12;100553.72;1837591;77;20966;-49
2020/12/10 11:28:39;;;;;;;63.02;24.82;;;;;;;-3.30;83.10;100550.65;1828347;77;21058;-48
2020/12/10 11:31:08;;;;;;;63.45;25.72;;;;;;;-3.28;83.16;100559.06;1841762;77;20910;-51
2020/12/10 11:33:49;;;;;;;54.85;24.12;;;;;;;-3.22;83.16;100564.45;1831109;77;20929;-48
2020/12/10 11:36:19;;;;;;;59.53;26.80;;;;;;;-3.20;83.13;100559.19;1834144;77;21192;-49
2020/12/10 11:38:47;;;;;;;62.98;28.02;;;;;;;-3.23;83.23;100556.08;1836559;77;21140;-48